createdAt,value
2023-04-25T00:00:24.172Z,1.95
2023-04-25T00:02:51.976Z,2.20
2023-04-25T00:05:20.836Z,2.08
2023-04-25T00:07:48.722Z,1.77
2023-04-25T00:10:16.942Z,1.70
2023-04-25T00:12:44.667Z,1.63
2023-04-25T00:15:13.097Z,1.95
2023-04-25T00:17:41.029Z,2.00
2023-04-25T00:20:12.136Z,1.60
2023-04-25T00:22:39.882Z,2.05
2023-04-25T00:25:08.332Z,1.80
2023-04-25T00:27:36.141Z,2.00
2023-04-25T00:30:04.636Z,2.10
2023-04-25T00:32:32.439Z,1.80
2023-04-25T00:35:00.396Z,2.08
2023-04-25T00:37:28.827Z,1.95
2023-04-25T00:39:59.012Z,2.00
2023-04-25T00:42:27.044Z,1.90
2023-04-25T00:44:55.585Z,2.10
2023-04-25T00:47:24.789Z,1.98
2023-04-25T00:49:54.187Z,2.20
2023-04-25T00:52:22.045Z,1.90
2023-04-25T00:54:49.885Z,1.95
2023-04-25T00:57:17.764Z,2.13
2023-04-25T00:59:49.648Z,2.20
2023-04-25T01:02:17.745Z,2.20
2023-04-25T01:04:46.099Z,2.10
2023-04-25T01:07:14.341Z,2.00
2023-04-25T01:09:42.760Z,2.28
2023-04-25T01:12:10.742Z,2.20
2023-04-25T01:14:38.831Z,2.13
2023-04-25T01:17:09.941Z,1.98
2023-04-25T01:19:37.988Z,2.22
2023-04-25T01:22:06.136Z,2.47
2023-04-25T01:24:34.260Z,2.35
2023-04-25T01:27:03.104Z,1.90
2023-04-25T01:29:31.900Z,2.38
2023-04-25T01:32:00.963Z,2.75
2023-04-25T01:34:28.822Z,2.53
2023-04-25T01:37:01.767Z,2.50
2023-04-25T01:39:30.574Z,2.40
2023-04-25T01:42:00.523Z,2.55
2023-04-25T01:44:28.573Z,2.78
2023-04-25T01:46:56.370Z,2.85
2023-04-25T01:49:24.748Z,2.67
2023-04-25T01:51:52.672Z,2.95
2023-04-25T01:54:21.269Z,2.10
2023-04-25T01:56:53.098Z,2.63
2023-04-25T01:59:22.848Z,2.55
2023-04-25T02:02:13.925Z,2.33
2023-04-25T02:04:41.894Z,2.70
2023-04-25T02:07:10.484Z,2.53
2023-04-25T02:09:46.728Z,2.45
2023-04-25T02:12:14.744Z,2.63
2023-04-25T02:15:06.945Z,2.58
2023-04-25T02:17:46.176Z,2.38
2023-04-25T02:20:14.066Z,2.53
2023-04-25T02:22:41.851Z,2.65
2023-04-25T02:25:11.320Z,2.67
2023-04-25T02:27:39.436Z,2.45
2023-04-25T02:30:09.533Z,2.80
2023-04-25T02:32:38.369Z,2.90
2023-04-25T02:35:07.222Z,3.00
2023-04-25T02:37:36.584Z,2.70
2023-04-25T02:40:05.401Z,3.10
2023-04-25T02:42:34.223Z,2.60
2023-04-25T02:45:05.537Z,2.72
2023-04-25T02:47:33.502Z,2.80
2023-04-25T02:50:01.268Z,2.90
2023-04-25T02:52:29.678Z,2.90
2023-04-25T02:55:05.833Z,2.90
2023-04-25T02:57:35.481Z,3.00
2023-04-25T03:00:07.658Z,2.72
2023-04-25T03:02:35.599Z,3.08
2023-04-25T03:05:04.191Z,3.00
2023-04-25T03:07:32.312Z,3.05
2023-04-25T03:10:00.069Z,2.85
2023-04-25T03:12:27.858Z,3.08
2023-04-25T03:14:55.651Z,3.30
2023-04-25T03:17:23.414Z,3.35
2023-04-25T03:19:51.319Z,3.35
2023-04-25T03:22:19.506Z,3.30
2023-04-25T03:24:48.011Z,2.67
2023-04-25T03:27:15.768Z,3.40
2023-04-25T03:29:44.508Z,3.15
2023-04-25T03:32:12.409Z,3.50
2023-04-25T03:34:41.052Z,3.38
2023-04-25T03:37:08.778Z,3.60
2023-04-25T03:39:39.482Z,3.53
2023-04-25T03:42:08.142Z,3.35
2023-04-25T03:44:36.021Z,3.40
2023-04-25T03:47:04.059Z,3.40
2023-04-25T03:49:33.529Z,3.53
2023-04-25T03:52:03.931Z,3.58
2023-04-25T03:54:38.114Z,3.47
2023-04-25T03:57:18.478Z,3.40
2023-04-25T03:59:46.283Z,3.20
2023-04-25T04:02:15.800Z,3.42
2023-04-25T04:04:45.230Z,3.70
2023-04-25T04:07:13.700Z,3.92
2023-04-25T04:09:43.651Z,3.72
2023-04-25T04:12:17.065Z,3.75
2023-04-25T04:14:45.630Z,3.63
2023-04-25T04:17:13.533Z,3.40
2023-04-25T04:19:41.341Z,3.70
2023-04-25T04:22:13.609Z,3.70
2023-04-25T04:24:44.846Z,4.00
2023-04-25T04:27:14.298Z,3.70
2023-04-25T04:30:01.311Z,3.65
2023-04-25T04:32:38.739Z,3.60
2023-04-25T04:35:07.932Z,3.53
2023-04-25T04:37:35.836Z,3.50
2023-04-25T04:40:06.224Z,3.35
2023-04-25T04:42:49.051Z,3.25
2023-04-25T04:45:44.150Z,3.08
2023-04-25T04:48:36.255Z,3.47
2023-04-25T04:51:04.784Z,3.72
2023-04-25T04:54:03.248Z,3.10
2023-04-25T04:56:54.083Z,3.75
2023-04-25T04:59:24.614Z,3.78
2023-04-25T05:02:11.091Z,3.20
2023-04-25T05:04:38.912Z,3.30
2023-04-25T05:07:21.121Z,3.63
2023-04-25T05:10:05.470Z,3.50
2023-04-25T05:12:44.213Z,4.03
2023-04-25T05:15:12.468Z,3.70
2023-04-25T05:18:00.532Z,3.70
2023-04-25T05:20:48.598Z,3.60
2023-04-25T05:23:37.168Z,3.58
2023-04-25T05:26:25.138Z,3.95
2023-04-25T05:29:11.274Z,4.18
2023-04-25T05:31:59.412Z,4.05
2023-04-25T05:34:27.234Z,4.47
2023-04-25T05:36:58.281Z,4.95
2023-04-25T05:39:28.307Z,4.55
2023-04-25T05:42:28.806Z,4.68
2023-04-25T05:45:23.159Z,4.00
2023-04-25T05:48:12.562Z,4.43
2023-04-25T05:50:51.158Z,3.80
2023-04-25T05:53:45.401Z,4.30
2023-04-25T05:56:14.698Z,4.22
2023-04-25T05:58:42.428Z,4.22
2023-04-25T06:01:13.677Z,3.28
2023-04-25T06:03:46.377Z,3.83
2023-04-25T06:06:16.825Z,3.80
2023-04-25T06:08:48.032Z,4.50
2023-04-25T06:11:22.624Z,3.55
2023-04-25T06:13:50.735Z,3.50
2023-04-25T06:16:20.627Z,3.90
2023-04-25T06:18:48.477Z,3.90
2023-04-25T06:21:16.850Z,3.92
2023-04-25T06:23:47.054Z,3.60
2023-04-25T06:26:21.184Z,3.15
2023-04-25T06:28:49.723Z,2.95
2023-04-25T06:31:17.519Z,3.25
2023-04-25T06:33:49.399Z,3.60
2023-04-25T06:36:17.253Z,3.33
2023-04-25T06:38:48.094Z,3.40
2023-04-25T06:43:47.648Z,2.95
2023-04-25T06:46:31.165Z,3.00
2023-04-25T06:49:00.520Z,3.13
2023-04-25T06:51:32.750Z,3.03
2023-04-25T06:54:02.456Z,3.10
2023-04-25T06:56:51.649Z,3.00
2023-04-25T06:59:24.267Z,2.97
2023-04-25T07:01:52.499Z,3.33
2023-04-25T07:04:23.740Z,3.47
2023-04-25T07:06:57.846Z,3.60
2023-04-25T07:09:35.450Z,3.92
2023-04-25T07:12:07.409Z,4.05
2023-04-25T07:14:35.932Z,3.65
2023-04-25T07:17:03.823Z,3.70
2023-04-25T07:19:34.174Z,3.70
2023-04-25T07:22:05.160Z,5.22
2023-04-25T07:24:36.999Z,3.42
2023-04-25T07:27:07.239Z,3.75
2023-04-25T07:29:53.172Z,3.30
2023-04-25T07:32:29.521Z,3.47
2023-04-25T07:34:57.889Z,3.70
2023-04-25T07:37:27.495Z,4.10
2023-04-25T07:40:10.741Z,3.55
2023-04-25T07:42:45.820Z,3.53
2023-04-25T07:45:17.532Z,4.28
2023-04-25T07:47:48.916Z,4.25
2023-04-25T07:50:23.203Z,3.90
2023-04-25T07:52:50.939Z,4.00
2023-04-25T07:55:29.962Z,4.30
2023-04-25T07:58:09.843Z,3.97
2023-04-25T08:03:29.498Z,4.50
2023-04-25T08:05:59.355Z,4.65
2023-04-25T08:08:31.093Z,4.90
2023-04-25T08:10:58.921Z,5.00
2023-04-25T08:13:27.840Z,4.22
2023-04-25T08:15:57.253Z,4.60
2023-04-25T08:18:25.034Z,4.88
2023-04-25T08:20:54.446Z,5.13
2023-04-25T08:23:22.248Z,4.93
2023-04-25T08:25:55.332Z,4.85
2023-04-25T08:28:29.286Z,4.57
2023-04-25T08:31:00.064Z,4.82
2023-04-25T08:33:43.873Z,5.85
2023-04-25T08:36:39.628Z,6.70
2023-04-25T08:39:19.900Z,8.23
2023-04-25T08:42:10.543Z,7.03
2023-04-25T08:44:39.696Z,7.50
2023-04-25T08:47:08.044Z,7.38
2023-04-25T08:49:55.247Z,8.20
2023-04-25T08:52:28.722Z,7.07
2023-04-25T08:54:58.347Z,7.38
2023-04-25T08:57:27.072Z,7.78
2023-04-25T08:59:56.412Z,7.63
2023-04-25T09:02:27.950Z,7.72
2023-04-25T09:04:56.527Z,8.50
2023-04-25T09:07:24.818Z,7.40
2023-04-25T09:09:55.560Z,7.07
2023-04-25T09:12:26.129Z,6.32
2023-04-25T09:15:10.528Z,5.60
2023-04-25T09:18:03.582Z,5.07
2023-04-25T09:23:22.908Z,5.40
2023-04-25T09:25:56.108Z,6.03
2023-04-25T09:31:02.846Z,4.30
2023-04-25T09:33:36.818Z,4.55
2023-04-25T09:36:10.241Z,4.88
2023-04-25T09:38:53.106Z,5.18
2023-04-25T09:41:29.013Z,6.68
2023-04-25T09:44:04.717Z,5.85
2023-04-25T09:46:39.460Z,5.43
2023-04-25T09:49:22.044Z,5.90
2023-04-25T09:52:02.130Z,5.85
2023-04-25T09:54:52.904Z,6.65
2023-04-25T09:57:27.475Z,6.53
2023-04-25T09:59:58.507Z,7.10
2023-04-25T10:02:30.508Z,7.28
2023-04-25T10:05:10.644Z,7.55
2023-04-25T10:07:41.790Z,7.32
2023-04-25T10:10:14.475Z,7.18
2023-04-25T10:12:45.532Z,7.20
2023-04-25T10:15:15.804Z,7.30
2023-04-25T10:17:46.341Z,7.80
2023-04-25T10:20:15.842Z,7.90
2023-04-25T10:22:48.314Z,7.15
2023-04-25T10:25:18.572Z,7.85
2023-04-25T10:27:46.450Z,7.07
2023-04-25T10:30:17.421Z,6.68
2023-04-25T10:32:46.604Z,6.82
2023-04-25T10:35:25.870Z,5.65
2023-04-25T10:38:10.926Z,6.18
2023-04-25T10:40:39.423Z,6.03
2023-04-25T10:43:32.074Z,5.88
2023-04-25T10:46:01.754Z,6.25
2023-04-25T10:48:31.964Z,5.85
2023-04-25T10:51:16.842Z,5.82
2023-04-25T10:54:09.280Z,5.80
2023-04-25T10:56:46.861Z,6.10
2023-04-25T10:59:19.271Z,5.85
2023-04-25T11:01:53.606Z,6.70
2023-04-25T11:04:41.704Z,5.85
2023-04-25T11:07:33.182Z,6.03
2023-04-25T11:10:05.172Z,5.53
2023-04-25T11:12:33.398Z,5.50
2023-04-25T11:15:04.262Z,5.82
2023-04-25T11:17:32.565Z,5.05
2023-04-25T11:20:01.324Z,5.35
2023-04-25T11:22:29.620Z,4.97
2023-04-25T11:24:58.906Z,5.70
2023-04-25T11:27:26.663Z,5.50
2023-04-25T11:29:56.042Z,5.32
2023-04-25T11:32:25.536Z,5.68
2023-04-25T11:34:57.010Z,5.55
2023-04-25T11:37:24.811Z,5.53
2023-04-25T11:39:53.029Z,5.32
2023-04-25T11:42:22.487Z,6.10
2023-04-25T11:44:52.720Z,5.35
2023-04-25T11:47:20.527Z,5.75
2023-04-25T11:49:49.709Z,5.80
2023-04-25T11:52:18.410Z,5.85
2023-04-25T11:54:46.238Z,5.75
2023-04-25T11:57:14.102Z,5.90
2023-04-25T11:59:42.144Z,5.75
2023-04-25T12:02:11.901Z,6.00
2023-04-25T12:04:42.696Z,5.63
2023-04-25T12:07:15.762Z,5.80
2023-04-25T12:09:54.399Z,5.60
2023-04-25T12:12:34.815Z,5.13
2023-04-25T12:15:25.361Z,5.03
2023-04-25T12:17:57.806Z,5.55
2023-04-25T12:20:27.033Z,5.00
2023-04-25T12:22:56.096Z,5.10
2023-04-25T12:25:41.026Z,5.05
2023-04-25T12:28:26.231Z,5.13
2023-04-25T12:31:05.338Z,5.07
2023-04-25T12:33:39.819Z,5.00
2023-04-25T12:36:12.428Z,5.15
2023-04-25T12:38:43.704Z,4.78
2023-04-25T12:43:40.514Z,4.50
2023-04-25T12:46:08.353Z,4.97
2023-04-25T12:48:36.321Z,4.75
2023-04-25T12:51:04.215Z,4.82
2023-04-25T12:53:33.244Z,4.90
2023-04-25T12:58:32.590Z,4.78
2023-04-25T13:01:00.541Z,4.35
2023-04-25T13:03:29.470Z,5.07
2023-04-25T13:05:57.437Z,4.47
2023-04-25T13:08:25.173Z,4.85
2023-04-25T13:10:52.920Z,4.55
2023-04-25T13:13:21.296Z,4.72
2023-04-25T13:15:48.985Z,4.55
2023-04-25T13:18:19.054Z,4.15
2023-04-25T13:20:47.241Z,4.63
2023-04-25T13:23:14.979Z,3.92
2023-04-25T13:25:44.569Z,4.05
2023-04-25T13:28:12.243Z,4.10
2023-04-25T13:30:43.668Z,4.55
2023-04-25T13:33:13.462Z,3.95
2023-04-25T13:35:44.152Z,4.13
2023-04-25T13:38:11.854Z,3.93
2023-04-25T13:40:41.282Z,3.97
2023-04-25T13:43:09.114Z,3.83
2023-04-25T13:45:40.469Z,3.80
2023-04-25T13:48:10.077Z,3.88
2023-04-25T13:50:37.866Z,3.42
2023-04-25T13:53:05.764Z,3.90
2023-04-25T13:55:38.060Z,3.80
2023-04-25T13:58:11.039Z,3.50
2023-04-25T14:03:12.981Z,3.40
2023-04-25T14:05:41.213Z,3.40
2023-04-25T14:08:10.927Z,3.75
2023-04-25T14:10:40.628Z,3.45
2023-04-25T14:13:10.666Z,4.78
2023-04-25T14:15:41.214Z,3.70
2023-04-25T14:18:10.601Z,3.40
2023-04-25T14:20:38.413Z,3.05
2023-04-25T14:23:08.333Z,3.10
2023-04-25T14:25:37.342Z,3.22
2023-04-25T14:28:05.204Z,3.38
2023-04-25T14:30:35.035Z,3.35
2023-04-25T14:33:04.543Z,3.08
2023-04-25T14:35:32.250Z,3.53
2023-04-25T14:41:30.043Z,3.35
2023-04-25T14:43:59.681Z,3.00
2023-04-25T14:46:30.389Z,2.80
2023-04-25T14:49:00.524Z,2.88
2023-04-25T14:51:28.616Z,2.85
2023-04-25T14:53:58.005Z,2.80
2023-04-25T14:56:31.103Z,2.40
2023-04-25T14:59:00.623Z,2.78
2023-04-25T15:01:28.931Z,2.53
2023-04-25T15:03:59.440Z,2.75
2023-04-25T15:06:30.844Z,2.38
2023-04-25T15:09:05.790Z,2.50
2023-04-25T15:11:38.746Z,2.85
2023-04-25T15:14:10.278Z,2.65
2023-04-25T15:16:38.200Z,2.70
2023-04-25T15:19:06.837Z,2.50
2023-04-25T15:21:37.759Z,2.67
2023-04-25T15:24:07.035Z,3.10
2023-04-25T15:26:35.246Z,3.13
2023-04-25T15:29:05.662Z,3.60
2023-04-25T15:31:38.159Z,4.10
2023-04-25T15:34:06.321Z,4.75
2023-04-25T15:36:34.141Z,5.03
2023-04-25T15:39:04.213Z,3.58
2023-04-25T15:41:32.777Z,3.97
2023-04-25T15:44:05.260Z,3.78
2023-04-25T15:46:34.940Z,4.05
2023-04-25T15:49:02.968Z,4.05
2023-04-25T15:51:33.906Z,3.78
2023-04-25T15:54:02.788Z,5.18
2023-04-25T15:56:32.922Z,4.60
2023-04-25T15:59:01.758Z,4.57
2023-04-25T16:01:31.473Z,4.00
2023-04-25T16:04:02.103Z,4.07
2023-04-25T16:06:34.435Z,4.20
2023-04-25T16:09:10.487Z,3.97
2023-04-25T16:11:41.475Z,4.25
2023-04-25T16:14:09.685Z,3.90
2023-04-25T16:16:39.944Z,4.22
2023-04-25T16:19:11.256Z,4.07
2023-04-25T16:21:39.845Z,3.80
2023-04-25T16:24:11.171Z,4.25
2023-04-25T16:26:43.800Z,4.55
2023-04-25T16:29:17.741Z,3.83
2023-04-25T16:31:48.892Z,4.20
2023-04-25T16:37:54.164Z,3.65
2023-04-25T16:40:29.942Z,3.80
2023-04-25T16:43:06.794Z,3.28
2023-04-25T16:45:37.182Z,3.22
2023-04-25T16:48:06.799Z,3.50
2023-04-25T16:50:36.202Z,3.67
2023-04-25T16:53:09.286Z,4.07
2023-04-25T16:55:40.066Z,4.05
2023-04-25T16:58:12.088Z,3.88
2023-04-25T17:00:41.944Z,4.53
2023-04-25T17:03:10.246Z,4.97
2023-04-25T17:05:38.701Z,5.00
2023-04-25T17:08:08.604Z,5.13
2023-04-25T17:10:38.148Z,4.43
2023-04-25T17:13:07.174Z,4.70
2023-04-25T17:15:36.337Z,4.60
2023-04-25T17:18:06.287Z,5.03
2023-04-25T17:20:35.584Z,4.85
2023-04-25T17:23:04.272Z,5.15
2023-04-25T17:25:33.805Z,5.20
2023-04-25T17:28:04.212Z,4.50
2023-04-25T17:30:33.035Z,4.50
2023-04-25T17:33:01.529Z,5.03
2023-04-25T17:35:29.823Z,4.90
2023-04-25T17:37:58.116Z,5.38
2023-04-25T17:40:27.191Z,5.75
2023-04-25T17:42:58.174Z,5.20
2023-04-25T17:45:26.433Z,5.15
2023-04-25T17:47:54.528Z,5.25
2023-04-25T17:50:23.129Z,4.75
2023-04-25T17:52:52.047Z,4.57
2023-04-25T17:55:22.615Z,5.03
2023-04-25T17:57:50.576Z,4.57
2023-04-25T18:00:20.086Z,5.38
2023-04-25T18:02:51.499Z,5.30
2023-04-25T18:07:49.820Z,5.05
2023-04-25T18:10:19.313Z,5.22
2023-04-25T18:12:47.397Z,5.18
2023-04-25T18:15:15.987Z,5.57
2023-04-25T18:17:45.445Z,5.65
2023-04-25T18:20:17.960Z,5.55
2023-04-25T18:22:49.098Z,5.40
2023-04-25T18:25:18.630Z,6.68
2023-04-25T18:27:53.903Z,5.57
2023-04-25T18:30:23.935Z,5.80
2023-04-25T18:32:53.515Z,5.32
2023-04-25T18:35:22.572Z,5.78
2023-04-25T18:37:51.559Z,5.97
2023-04-25T18:40:20.100Z,6.25
2023-04-25T18:42:50.099Z,6.50
2023-04-25T18:45:20.448Z,6.10
2023-04-25T18:47:49.626Z,5.45
2023-04-25T18:50:20.873Z,6.20
2023-04-25T18:52:50.021Z,5.53
2023-04-25T18:55:18.787Z,5.95
2023-04-25T18:57:47.122Z,7.07
2023-04-25T19:00:17.345Z,6.10
2023-04-25T19:02:45.325Z,6.32
2023-04-25T19:05:13.273Z,6.45
2023-04-25T19:07:41.464Z,6.60
2023-04-25T19:10:09.631Z,6.30
2023-04-25T19:12:37.705Z,6.43
2023-04-25T19:15:06.812Z,6.03
2023-04-25T19:17:34.740Z,6.20
2023-04-25T19:20:02.520Z,6.30
2023-04-25T19:22:30.933Z,7.00
2023-04-25T19:25:09.772Z,7.05
2023-04-25T19:27:38.477Z,7.10
2023-04-25T19:30:10.600Z,7.10
2023-04-25T19:32:39.069Z,7.45
2023-04-25T19:35:11.396Z,7.38
2023-04-25T19:37:45.733Z,7.05
2023-04-25T19:40:16.001Z,7.30
2023-04-25T19:42:44.848Z,6.47
2023-04-25T19:45:13.097Z,6.60
2023-04-25T19:47:42.299Z,5.53
2023-04-25T19:50:11.137Z,6.15
2023-04-25T19:52:39.510Z,5.88
2023-04-25T19:55:08.537Z,6.10
2023-04-25T19:57:37.844Z,5.70
2023-04-25T20:00:10.887Z,6.20
2023-04-25T20:02:45.074Z,6.30
2023-04-25T20:05:17.793Z,6.28
2023-04-25T20:07:45.475Z,6.50
2023-04-25T20:10:15.677Z,6.30
2023-04-25T20:12:45.026Z,6.60
2023-04-25T20:15:12.843Z,6.10
2023-04-25T20:17:41.635Z,6.65
2023-04-25T20:20:11.323Z,6.22
2023-04-25T20:22:40.611Z,6.20
2023-04-25T20:25:10.458Z,7.03
2023-04-25T20:27:38.364Z,7.05
2023-04-25T20:30:12.734Z,7.85
2023-04-25T20:32:41.209Z,8.50
2023-04-25T20:35:10.030Z,9.90
2023-04-25T20:37:38.002Z,9.65
2023-04-25T20:40:09.342Z,9.57
2023-04-25T20:42:38.134Z,9.98
2023-04-25T20:45:07.853Z,9.35
2023-04-25T20:47:35.962Z,9.48
2023-04-25T20:50:05.955Z,10.13
2023-04-25T20:52:33.913Z,9.63
2023-04-25T20:55:01.972Z,10.15
2023-04-25T20:57:29.817Z,9.88
2023-04-25T20:59:57.999Z,9.45
2023-04-25T21:02:25.896Z,9.60
2023-04-25T21:04:53.700Z,9.73
2023-04-25T21:07:21.563Z,9.55
2023-04-25T21:09:49.417Z,9.52
2023-04-25T21:12:17.109Z,9.35
2023-04-25T21:14:44.813Z,9.40
2023-04-25T21:17:12.555Z,10.20
2023-04-25T21:19:41.100Z,9.02
2023-04-25T21:22:08.850Z,9.80
2023-04-25T21:24:37.437Z,10.40
2023-04-25T21:27:05.182Z,10.10
2023-04-25T21:29:33.164Z,10.07
2023-04-25T21:32:01.282Z,10.15
2023-04-25T21:34:29.025Z,10.25
2023-04-25T21:36:56.718Z,10.18
2023-04-25T21:39:25.089Z,10.20
2023-04-25T21:41:52.818Z,10.30
2023-04-25T21:44:20.540Z,10.45
2023-04-25T21:46:48.246Z,9.80
2023-04-25T21:49:16.479Z,10.57
2023-04-25T21:51:44.521Z,9.40
2023-04-25T21:54:12.271Z,10.27
2023-04-25T21:56:40.042Z,10.15
2023-04-25T21:59:07.764Z,10.40
2023-04-25T22:01:35.524Z,10.13
2023-04-25T22:04:03.445Z,10.02
2023-04-25T22:06:32.255Z,10.45
2023-04-25T22:08:59.973Z,10.23
2023-04-25T22:11:28.494Z,9.98
2023-04-25T22:13:56.351Z,9.98
2023-04-25T22:16:24.253Z,9.65
2023-04-25T22:18:53.162Z,9.52
2023-04-25T22:21:22.772Z,9.40
2023-04-25T22:23:52.172Z,8.85
2023-04-25T22:26:20.496Z,9.40
2023-04-25T22:28:48.215Z,9.35
2023-04-25T22:31:16.250Z,9.82
2023-04-25T22:33:46.972Z,10.07
2023-04-25T22:36:15.120Z,10.20
2023-04-25T22:38:43.441Z,9.98
2023-04-25T22:41:11.275Z,9.98
2023-04-25T22:43:42.042Z,9.90
2023-04-25T22:46:21.197Z,9.90
2023-04-25T22:48:49.244Z,10.07
2023-04-25T22:51:17.638Z,9.52
2023-04-25T22:53:45.403Z,9.95
2023-04-25T22:56:13.315Z,10.35
2023-04-25T22:58:41.491Z,9.98
2023-04-25T23:01:10.265Z,10.30
2023-04-25T23:03:38.435Z,9.88
2023-04-25T23:06:06.459Z,9.30
2023-04-25T23:08:35.185Z,9.57
2023-04-25T23:11:09.316Z,10.38
2023-04-25T23:13:37.185Z,9.35
2023-04-25T23:16:10.730Z,8.50
2023-04-25T23:18:40.209Z,7.70
2023-04-25T23:21:12.114Z,7.20
2023-04-25T23:23:39.879Z,7.93
2023-04-25T23:26:09.752Z,6.70
2023-04-25T23:28:41.432Z,5.57
2023-04-25T23:31:10.659Z,6.05
2023-04-25T23:33:39.216Z,5.90
2023-04-25T23:36:07.637Z,5.03
2023-04-25T23:38:35.816Z,4.90
2023-04-25T23:41:03.472Z,6.18
2023-04-25T23:43:31.196Z,6.97
2023-04-25T23:45:58.949Z,7.43
2023-04-25T23:48:26.728Z,8.10
2023-04-25T23:50:54.415Z,8.07
2023-04-25T23:53:22.146Z,8.00
2023-04-25T23:55:49.860Z,8.63
2023-04-25T23:58:17.581Z,8.45
